[2025-02-16 00:00:00, 2025-02-16 23:59:59] previous next
| time | temperature | air pressure | humidity | solar radiation | wind speed |
|---|---|---|---|---|---|
| 2025-02-16 07:45:04 | -0.4 | 1011.4 | 93.0 | 0.0 | 0.0 |
| 2025-02-16 08:34:44 | 0.1 | 1011.4 | 89.0 | 43.0 | 2.5 |
| 2025-02-16 08:54:46 | 0.3 | 1011.7 | 87.0 | 48.6 | 3.4 |
| 2025-02-16 09:14:44 | 0.6 | 1011.7 | 87.0 | 62.8 | 3.1 |
| 2025-02-16 09:34:45 | 0.9 | 1012.0 | 85.0 | 71.2 | 2.1 |
| 2025-02-16 09:54:47 | 1.3 | 1012.0 | 84.0 | 71.0 | 1.5 |
| 2025-02-16 10:14:44 | 1.3 | 1012.0 | 82.0 | 86.6 | 4.9 |
| 2025-02-16 10:34:43 | 1.7 | 1012.0 | 82.0 | 81.2 | 4.3 |
| 2025-02-16 10:54:45 | 2.2 | 1012.0 | 79.0 | 101.5 | 4.5 |
| 2025-02-16 11:14:45 | 2.3 | 1012.0 | 77.0 | 104.8 | 4.5 |
| 2025-02-16 11:34:45 | 2.8 | 1012.0 | 76.0 | 162.3 | 2.1 |
| 2025-02-16 11:54:44 | 2.8 | 1012.0 | 75.0 | 189.7 | 3.2 |
| 2025-02-16 12:14:45 | 2.9 | 1011.7 | 74.0 | 248.4 | 2.2 |
| 2025-02-16 12:34:45 | 3.2 | 1011.7 | 69.0 | 251.1 | 6.9 |
| 2025-02-16 12:54:46 | 4.2 | 1011.7 | 66.0 | 260.8 | 2.1 |
| 2025-02-16 13:14:44 | 3.3 | 1011.7 | 68.0 | 239.0 | 4.2 |
| 2025-02-16 13:34:45 | 3.5 | 1011.7 | 67.0 | 239.2 | 3.8 |
| 2025-02-16 13:54:44 | 3.7 | 1011.7 | 66.0 | 238.6 | 2.8 |
| 2025-02-16 14:14:44 | 3.7 | 1011.7 | 62.0 | 225.1 | 5.3 |
| 2025-02-16 14:34:45 | 3.8 | 1012.0 | 64.0 | 214.3 | 3.4 |
| 2025-02-16 14:54:46 | 4.0 | 1011.7 | 63.0 | 192.6 | 1.5 |
| 2025-02-16 15:14:46 | 4.0 | 1012.4 | 64.0 | 178.6 | 2.1 |
CSV export: /station/IWELLEN5/data?period=20250216T000000/20250216T235959&format=csv&tz=GMT